This is the latest recevied weather packets stored in our database for station/object K5NAN. If no packets are shown the sender has not sent any weather packets the latest 1 day(s).
| Time | Temp. | Humidity | Pressure | Rain* | Wind** | Luminosity | Snow |
|---|---|---|---|---|---|---|---|
| 1777998231 | 25° C | 75% | 1004 hPa | 0 mm | 6.26 m/s, 213° | 405 W/m² | - |
| 1777997928 | 25° C | 75% | 1003.8 hPa | 0 mm | 6.26 m/s, 207° | 679 W/m² | - |
| 1777997625 | 24.44° C | 76% | 1003.7 hPa | 0 mm | 5.81 m/s, 172° | 657 W/m² | - |
| 1777997322 | 24.44° C | 76% | 1003.8 hPa | 0 mm | 8.49 m/s, 134° | 522 W/m² | - |
| 1777997021 | 24.44° C | 77% | 1003.7 hPa | 0 mm | 5.81 m/s, 187° | 437 W/m² | - |
| 1777996717 | 24.44° C | 77% | 1003.6 hPa | 0 mm | 6.26 m/s, 171° | 444 W/m² | - |
| 1777996413 | 23.89° C | 77% | 1003.6 hPa | 0 mm | 5.36 m/s, 204° | 430 W/m² | - |
| 1777996110 | 23.89° C | 78% | 1003.7 hPa | 0 mm | 6.26 m/s, 195° | 440 W/m² | - |
| 1777995806 | 23.89° C | 77% | 1003.6 hPa | 0 mm | 5.81 m/s, 208° | 358 W/m² | - |
| 1777995503 | 23.89° C | 79% | 1003.9 hPa | 0 mm | 5.81 m/s, 211° | 300 W/m² | - |
| 1777995200 | 23.89° C | 78% | 1004 hPa | 0 mm | 4.92 m/s, 207° | 290 W/m² | - |
| 1777994897 | 23.33° C | 79% | 1004 hPa | 0 mm | 4.02 m/s, 186° | 262 W/m² | - |
| 1777994594 | 23.33° C | 79% | 1004.2 hPa | 0 mm | 4.92 m/s, 147° | 179 W/m² | - |
| 1777994293 | 23.33° C | 79% | 1004 hPa | 0 mm | 4.02 m/s, 208° | 222 W/m² | - |
| 1777993990 | 23.33° C | 79% | 1004 hPa | 0 mm | 5.81 m/s, 215° | 204 W/m² | - |
| 1777993687 | 23.89° C | 79% | 1004.1 hPa | 0 mm | 7.15 m/s, 203° | 290 W/m² | - |
| 1777993385 | 23.33° C | 80% | 1004.1 hPa | 0 mm | 5.36 m/s, 201° | 434 W/m² | - |
| 1777993079 | 23.33° C | 79% | 1004.1 hPa | 0 mm | 5.81 m/s, 188° | 210 W/m² | - |
| 1777992778 | 23.33° C | 80% | 1003.9 hPa | 0 mm | 6.26 m/s, 176° | 243 W/m² | - |
| 1777992474 | 22.78° C | 81% | 1003.7 hPa | 0 mm | 4.02 m/s, 154° | 288 W/m² | - |
| 1777992173 | 22.78° C | 82% | 1003.5 hPa | 0 mm | 4.47 m/s, 196° | 252 W/m² | - |
| 1777991869 | 22.78° C | 82% | 1003.7 hPa | 0 mm | 5.81 m/s, 218° | 230 W/m² | - |
| 1777991567 | 22.78° C | 81% | 1003.8 hPa | 0 mm | 5.36 m/s, 166° | 169 W/m² | - |
| 1777991264 | 22.78° C | 81% | 1004 hPa | 0 mm | 4.92 m/s, 182° | 157 W/m² | - |
| 1777990961 | 22.22° C | 82% | 1003.9 hPa | 0 mm | 4.92 m/s, 200° | 246 W/m² | - |
* Rain latest hour (hover to see other rain measurements)
** Current wind speed in m/s (hover to see current wind gust speed)